sensor_id;sensor_type;location;lat;lon;timestamp;pressure;altitude;pressure_sealevel;temperature;humidity
55315;BME280;41619;42.816;23.226;2023-02-18T00:01:17;96297.88;;;-0.10;56.10
55315;BME280;41619;42.816;23.226;2023-02-18T00:03:43;96293.59;;;-0.11;55.92
55315;BME280;41619;42.816;23.226;2023-02-18T00:06:14;96282.81;;;-0.11;56.03
55315;BME280;41619;42.816;23.226;2023-02-18T00:08:40;96287.91;;;-0.09;56.56
55315;BME280;41619;42.816;23.226;2023-02-18T00:11:06;96282.25;;;-0.08;56.30
55315;BME280;41619;42.816;23.226;2023-02-18T00:13:32;96278.75;;;-0.08;56.37
55315;BME280;41619;42.816;23.226;2023-02-18T00:16:06;96271.78;;;-0.09;56.34
55315;BME280;41619;42.816;23.226;2023-02-18T00:18:32;96264.25;;;-0.12;56.78
55315;BME280;41619;42.816;23.226;2023-02-18T00:20:58;96263.75;;;-0.14;56.96
55315;BME280;41619;42.816;23.226;2023-02-18T00:23:24;96262.94;;;-0.15;57.23
55315;BME280;41619;42.816;23.226;2023-02-18T00:26:01;96257.31;;;-0.18;56.95
55315;BME280;41619;42.816;23.226;2023-02-18T00:28:27;96255.94;;;-0.21;56.69
55315;BME280;41619;42.816;23.226;2023-02-18T00:30:52;96251.94;;;-0.23;57.05
55315;BME280;41619;42.816;23.226;2023-02-18T00:33:17;96254.38;;;-0.27;57.30
55315;BME280;41619;42.816;23.226;2023-02-18T00:35:43;96246.09;;;-0.41;56.90
55315;BME280;41619;42.816;23.226;2023-02-18T00:38:08;96245.06;;;-0.50;57.05
55315;BME280;41619;42.816;23.226;2023-02-18T00:40:37;96241.34;;;-0.54;57.04
55315;BME280;41619;42.816;23.226;2023-02-18T00:43:02;96243.47;;;-0.56;57.23
55315;BME280;41619;42.816;23.226;2023-02-18T00:45:27;96242.94;;;-0.58;57.03
55315;BME280;41619;42.816;23.226;2023-02-18T00:47:53;96240.25;;;-0.58;57.21
55315;BME280;41619;42.816;23.226;2023-02-18T00:50:18;96238.66;;;-0.59;57.46
55315;BME280;41619;42.816;23.226;2023-02-18T00:52:44;96241.88;;;-0.62;57.23
55315;BME280;41619;42.816;23.226;2023-02-18T00:55:09;96245.13;;;-0.65;57.46
55315;BME280;41619;42.816;23.226;2023-02-18T00:57:34;96240.31;;;-0.68;57.56
55315;BME280;41619;42.816;23.226;2023-02-18T01:00:00;96236.53;;;-0.67;57.97
55315;BME280;41619;42.816;23.226;2023-02-18T01:02:25;96238.94;;;-0.66;57.79
55315;BME280;41619;42.816;23.226;2023-02-18T01:04:51;96245.13;;;-0.65;57.92
55315;BME280;41619;42.816;23.226;2023-02-18T01:07:16;96239.47;;;-0.64;58.16
55315;BME280;41619;42.816;23.226;2023-02-18T01:09:41;96241.38;;;-0.64;58.03
55315;BME280;41619;42.816;23.226;2023-02-18T01:12:07;96238.13;;;-0.61;58.45
55315;BME280;41619;42.816;23.226;2023-02-18T01:14:32;96242.94;;;-0.58;58.19
55315;BME280;41619;42.816;23.226;2023-02-18T01:16:58;96230.31;;;-0.52;58.42
55315;BME280;41619;42.816;23.226;2023-02-18T01:19:23;96228.91;;;-0.45;58.55
55315;BME280;41619;42.816;23.226;2023-02-18T01:21:48;96238.84;;;-0.35;58.56
55315;BME280;41619;42.816;23.226;2023-02-18T01:24:14;96229.66;;;-0.29;58.88
55315;BME280;41619;42.816;23.226;2023-02-18T01:26:39;96222.88;;;-0.21;58.90
55315;BME280;41619;42.816;23.226;2023-02-18T01:29:04;96220.97;;;-0.16;58.21
55315;BME280;41619;42.816;23.226;2023-02-18T01:31:30;96221.75;;;-0.10;58.75
55315;BME280;41619;42.816;23.226;2023-02-18T01:33:55;96225.47;;;-0.06;58.26
55315;BME280;41619;42.816;23.226;2023-02-18T01:36:20;96224.63;;;-0.02;58.33
55315;BME280;41619;42.816;23.226;2023-02-18T01:38:46;96232.69;;;0.04;58.40
55315;BME280;41619;42.816;23.226;2023-02-18T01:41:11;96232.41;;;0.05;58.48
55315;BME280;41619;42.816;23.226;2023-02-18T01:43:37;96239.91;;;0.08;58.69
55315;BME280;41619;42.816;23.226;2023-02-18T01:46:18;96235.34;;;0.09;58.33
55315;BME280;41619;42.816;23.226;2023-02-18T01:48:53;96243.69;;;0.07;58.44
55315;BME280;41619;42.816;23.226;2023-02-18T01:51:24;96239.13;;;0.08;58.75
55315;BME280;41619;42.816;23.226;2023-02-18T01:54:09;96227.28;;;0.09;58.62
55315;BME280;41619;42.816;23.226;2023-02-18T01:56:51;96236.66;;;0.11;58.83
55315;BME280;41619;42.816;23.226;2023-02-18T01:59:23;96233.13;;;0.16;58.38
55315;BME280;41619;42.816;23.226;2023-02-18T02:01:50;96227.22;;;0.19;58.82
55315;BME280;41619;42.816;23.226;2023-02-18T02:04:16;96231.50;;;0.20;58.95
55315;BME280;41619;42.816;23.226;2023-02-18T02:06:42;96234.44;;;0.23;58.97
55315;BME280;41619;42.816;23.226;2023-02-18T02:09:11;96231.75;;;0.23;59.33
55315;BME280;41619;42.816;23.226;2023-02-18T02:16:52;96244.31;;;0.33;59.26
55315;BME280;41619;42.816;23.226;2023-02-18T02:31:12;96222.94;;;0.47;59.39
55315;BME280;41619;42.816;23.226;2023-02-18T02:36:36;96230.75;;;0.48;59.29
55315;BME280;41619;42.816;23.226;2023-02-18T02:39:19;96228.84;;;0.49;59.44
55315;BME280;41619;42.816;23.226;2023-02-18T02:44:46;96233.75;;;0.42;59.48
55315;BME280;41619;42.816;23.226;2023-02-18T02:48:24;96225.22;;;0.29;59.72
55315;BME280;41619;42.816;23.226;2023-02-18T02:53:02;96227.47;;;0.17;59.71
55315;BME280;41619;42.816;23.226;2023-02-18T02:55:29;96231.25;;;0.16;59.73
55315;BME280;41619;42.816;23.226;2023-02-18T02:57:55;96231.25;;;0.16;60.02
55315;BME280;41619;42.816;23.226;2023-02-18T03:11:07;96234.00;;;0.06;60.63
55315;BME280;41619;42.816;23.226;2023-02-18T03:13:52;96238.56;;;0.11;60.67
55315;BME280;41619;42.816;23.226;2023-02-18T03:21:56;96254.13;;;0.19;60.62
55315;BME280;41619;42.816;23.226;2023-02-18T03:24:29;96263.25;;;0.23;60.60
55315;BME280;41619;42.816;23.226;2023-02-18T03:27:07;96255.13;;;0.28;60.69
55315;BME280;41619;42.816;23.226;2023-02-18T03:29:34;96263.69;;;0.35;60.38
55315;BME280;41619;42.816;23.226;2023-02-18T03:32:05;96271.47;;;0.42;60.64
55315;BME280;41619;42.816;23.226;2023-02-18T03:34:38;96265.22;;;0.46;60.92
55315;BME280;41619;42.816;23.226;2023-02-18T03:37:06;96264.13;;;0.47;60.84
55315;BME280;41619;42.816;23.226;2023-02-18T03:39:36;96265.75;;;0.48;60.76
55315;BME280;41619;42.816;23.226;2023-02-18T03:42:03;96263.84;;;0.49;60.35
55315;BME280;41619;42.816;23.226;2023-02-18T03:44:29;96270.03;;;0.49;60.50
55315;BME280;41619;42.816;23.226;2023-02-18T03:46:55;96269.75;;;0.51;61.04
55315;BME280;41619;42.816;23.226;2023-02-18T03:49:20;96277.84;;;0.51;60.68
55315;BME280;41619;42.816;23.226;2023-02-18T03:51:45;96273.53;;;0.50;60.94
55315;BME280;41619;42.816;23.226;2023-02-18T03:54:11;96271.66;;;0.50;60.78
55315;BME280;41619;42.816;23.226;2023-02-18T03:56:40;96274.63;;;0.49;61.04
55315;BME280;41619;42.816;23.226;2023-02-18T03:59:05;96273.59;;;0.45;60.95
55315;BME280;41619;42.816;23.226;2023-02-18T04:01:31;96281.19;;;0.38;60.97
55315;BME280;41619;42.816;23.226;2023-02-18T04:03:56;96280.41;;;0.32;61.52
55315;BME280;41619;42.816;23.226;2023-02-18T04:06:22;96282.06;;;0.28;61.11
55315;BME280;41619;42.816;23.226;2023-02-18T04:08:48;96269.44;;;0.23;61.17
55315;BME280;41619;42.816;23.226;2023-02-18T04:11:13;96262.22;;;0.19;61.32
55315;BME280;41619;42.816;23.226;2023-02-18T04:13:39;96263.81;;;0.15;61.94
55315;BME280;41619;42.816;23.226;2023-02-18T04:16:05;96263.06;;;0.09;61.66
55315;BME280;41619;42.816;23.226;2023-02-18T04:18:30;96252.06;;;0.06;61.76
55315;BME280;41619;42.816;23.226;2023-02-18T04:20:56;96249.94;;;0.03;62.14
55315;BME280;41619;42.816;23.226;2023-02-18T04:23:21;96255.84;;;-0.01;61.57
55315;BME280;41619;42.816;23.226;2023-02-18T04:25:47;96254.78;;;-0.05;61.67
55315;BME280;41619;42.816;23.226;2023-02-18T04:28:13;96256.97;;;-0.07;62.41
55315;BME280;41619;42.816;23.226;2023-02-18T04:30:40;96250.25;;;-0.09;62.43
55315;BME280;41619;42.816;23.226;2023-02-18T04:33:05;96246.47;;;-0.08;62.38
55315;BME280;41619;42.816;23.226;2023-02-18T04:35:30;96248.59;;;-0.05;62.52
55315;BME280;41619;42.816;23.226;2023-02-18T04:37:56;96258.28;;;0.01;62.17
55315;BME280;41619;42.816;23.226;2023-02-18T04:40:21;96262.00;;;0.05;61.95
55315;BME280;41619;42.816;23.226;2023-02-18T04:42:49;96268.72;;;0.08;61.96
55315;BME280;41619;42.816;23.226;2023-02-18T04:45:15;96261.19;;;0.10;62.18
55315;BME280;41619;42.816;23.226;2023-02-18T04:47:40;96257.41;;;0.11;62.24
55315;BME280;41619;42.816;23.226;2023-02-18T04:50:06;96272.19;;;0.13;62.46
55315;BME280;41619;42.816;23.226;2023-02-18T04:52:32;96271.63;;;0.16;62.44
55315;BME280;41619;42.816;23.226;2023-02-18T04:54:57;96268.13;;;0.21;62.64
55315;BME280;41619;42.816;23.226;2023-02-18T04:57:22;96267.78;;;0.27;62.48
55315;BME280;41619;42.816;23.226;2023-02-18T04:59:48;96268.53;;;0.38;62.59
55315;BME280;41619;42.816;23.226;2023-02-18T05:02:13;96266.03;;;0.47;62.26
55315;BME280;41619;42.816;23.226;2023-02-18T05:04:39;96249.81;;;0.57;62.09
55315;BME280;41619;42.816;23.226;2023-02-18T05:07:04;96247.25;;;0.71;61.74
55315;BME280;41619;42.816;23.226;2023-02-18T05:09:29;96255.78;;;0.83;61.65
55315;BME280;41619;42.816;23.226;2023-02-18T05:11:55;96258.09;;;0.95;62.36
55315;BME280;41619;42.816;23.226;2023-02-18T05:14:20;96248.28;;;1.04;61.89
55315;BME280;41619;42.816;23.226;2023-02-18T05:16:45;96250.38;;;1.12;61.75
55315;BME280;41619;42.816;23.226;2023-02-18T05:19:15;96253.53;;;1.19;62.06
55315;BME280;41619;42.816;23.226;2023-02-18T05:21:40;96251.06;;;1.23;61.58
55315;BME280;41619;42.816;23.226;2023-02-18T05:24:06;96256.69;;;1.26;61.51
55315;BME280;41619;42.816;23.226;2023-02-18T05:26:32;96245.09;;;1.26;61.78
55315;BME280;41619;42.816;23.226;2023-02-18T05:28:58;96253.69;;;1.28;61.77
55315;BME280;41619;42.816;23.226;2023-02-18T05:31:23;96246.41;;;1.28;62.16
55315;BME280;41619;42.816;23.226;2023-02-18T05:33:48;96240.72;;;1.30;61.80
55315;BME280;41619;42.816;23.226;2023-02-18T05:36:14;96241.25;;;1.32;61.75
55315;BME280;41619;42.816;23.226;2023-02-18T05:38:39;96253.59;;;1.38;62.59
55315;BME280;41619;42.816;23.226;2023-02-18T05:41:05;96271.59;;;1.42;62.19
55315;BME280;41619;42.816;23.226;2023-02-18T05:43:30;96263.19;;;1.49;61.60
55315;BME280;41619;42.816;23.226;2023-02-18T05:46:16;96272.53;;;1.57;61.69
55315;BME280;41619;42.816;23.226;2023-02-18T05:48:41;96265.69;;;1.64;62.32
55315;BME280;41619;42.816;23.226;2023-02-18T05:51:06;96269.38;;;1.73;61.91
55315;BME280;41619;42.816;23.226;2023-02-18T05:53:32;96271.13;;;1.83;61.77
55315;BME280;41619;42.816;23.226;2023-02-18T05:55:57;96254.00;;;1.93;61.23
55315;BME280;41619;42.816;23.226;2023-02-18T05:58:22;96263.03;;;2.02;61.42
55315;BME280;41619;42.816;23.226;2023-02-18T06:00:48;96266.72;;;2.11;61.43
55315;BME280;41619;42.816;23.226;2023-02-18T06:03:13;96265.84;;;2.16;61.40
55315;BME280;41619;42.816;23.226;2023-02-18T06:05:38;96271.66;;;2.23;61.49
55315;BME280;41619;42.816;23.226;2023-02-18T06:08:04;96268.09;;;2.27;61.43
55315;BME280;41619;42.816;23.226;2023-02-18T06:10:29;96272.34;;;2.33;61.46
55315;BME280;41619;42.816;23.226;2023-02-18T06:12:54;96263.63;;;2.36;61.11
55315;BME280;41619;42.816;23.226;2023-02-18T06:15:20;96254.13;;;2.39;61.65
55315;BME280;41619;42.816;23.226;2023-02-18T06:17:45;96257.34;;;2.41;61.75
55315;BME280;41619;42.816;23.226;2023-02-18T06:20:11;96255.97;;;2.43;62.15
55315;BME280;41619;42.816;23.226;2023-02-18T06:22:36;96255.31;;;2.52;61.61
55315;BME280;41619;42.816;23.226;2023-02-18T06:25:02;96260.03;;;2.60;61.63
55315;BME280;41619;42.816;23.226;2023-02-18T06:27:27;96261.06;;;2.64;61.84
55315;BME280;41619;42.816;23.226;2023-02-18T06:29:52;96265.59;;;2.68;61.97
55315;BME280;41619;42.816;23.226;2023-02-18T06:32:18;96254.69;;;2.73;61.33
55315;BME280;41619;42.816;23.226;2023-02-18T06:34:43;96269.44;;;2.81;61.80
55315;BME280;41619;42.816;23.226;2023-02-18T06:37:08;96269.03;;;2.88;61.28
55315;BME280;41619;42.816;23.226;2023-02-18T06:39:34;96264.34;;;2.93;61.52
55315;BME280;41619;42.816;23.226;2023-02-18T06:41:59;96249.72;;;2.94;61.06
55315;BME280;41619;42.816;23.226;2023-02-18T06:44:25;96259.94;;;2.97;61.51
55315;BME280;41619;42.816;23.226;2023-02-18T06:46:50;96255.88;;;3.00;61.09
55315;BME280;41619;42.816;23.226;2023-02-18T06:49:15;96260.97;;;3.01;61.08
55315;BME280;41619;42.816;23.226;2023-02-18T06:51:41;96263.19;;;2.99;61.39
55315;BME280;41619;42.816;23.226;2023-02-18T06:54:06;96265.78;;;3.04;61.26
55315;BME280;41619;42.816;23.226;2023-02-18T06:56:31;96269.41;;;3.14;61.19
55315;BME280;41619;42.816;23.226;2023-02-18T06:58:57;96261.41;;;3.22;61.11
55315;BME280;41619;42.816;23.226;2023-02-18T07:01:22;96255.81;;;3.32;61.52
55315;BME280;41619;42.816;23.226;2023-02-18T07:03:48;96263.13;;;3.46;61.62
55315;BME280;41619;42.816;23.226;2023-02-18T07:06:13;96275.38;;;3.57;61.22
55315;BME280;41619;42.816;23.226;2023-02-18T07:08:39;96265.63;;;3.70;61.15
55315;BME280;41619;42.816;23.226;2023-02-18T07:11:06;96263.22;;;3.82;61.11
55315;BME280;41619;42.816;23.226;2023-02-18T07:13:31;96261.59;;;4.08;60.91
55315;BME280;41619;42.816;23.226;2023-02-18T07:15:57;96262.03;;;4.38;60.64
55315;BME280;41619;42.816;23.226;2023-02-18T07:18:22;96253.72;;;4.56;60.27
55315;BME280;41619;42.816;23.226;2023-02-18T07:20:48;96259.41;;;4.69;59.94
55315;BME280;41619;42.816;23.226;2023-02-18T07:23:13;96261.56;;;4.80;59.53
55315;BME280;41619;42.816;23.226;2023-02-18T07:25:38;96269.47;;;4.91;59.68
55315;BME280;41619;42.816;23.226;2023-02-18T07:28:05;96271.66;;;5.11;59.37
55315;BME280;41619;42.816;23.226;2023-02-18T07:30:30;96274.72;;;5.40;58.51
55315;BME280;41619;42.816;23.226;2023-02-18T07:32:55;96273.63;;;5.50;58.24
55315;BME280;41619;42.816;23.226;2023-02-18T07:35:21;96270.59;;;5.52;58.36
55315;BME280;41619;42.816;23.226;2023-02-18T07:37:47;96268.53;;;5.57;57.96
55315;BME280;41619;42.816;23.226;2023-02-18T07:40:16;96272.75;;;5.63;57.93
55315;BME280;41619;42.816;23.226;2023-02-18T07:42:42;96274.81;;;5.66;58.33
55315;BME280;41619;42.816;23.226;2023-02-18T07:45:08;96263.19;;;5.74;57.63
55315;BME280;41619;42.816;23.226;2023-02-18T07:47:33;96260.03;;;5.81;57.46
55315;BME280;41619;42.816;23.226;2023-02-18T07:50:00;96258.81;;;5.96;56.80
55315;BME280;41619;42.816;23.226;2023-02-18T07:52:26;96259.97;;;6.29;56.29
55315;BME280;41619;42.816;23.226;2023-02-18T07:54:51;96260.94;;;7.03;55.55
55315;BME280;41619;42.816;23.226;2023-02-18T07:57:16;96263.31;;;8.06;55.01
55315;BME280;41619;42.816;23.226;2023-02-18T07:59:42;96248.66;;;9.48;52.84
55315;BME280;41619;42.816;23.226;2023-02-18T08:02:16;96235.97;;;10.01;50.85
55315;BME280;41619;42.816;23.226;2023-02-18T08:04:42;96245.88;;;9.81;50.73
55315;BME280;41619;42.816;23.226;2023-02-18T08:07:12;96252.72;;;9.99;51.02
55315;BME280;41619;42.816;23.226;2023-02-18T08:09:38;96245.28;;;10.61;50.33
55315;BME280;41619;42.816;23.226;2023-02-18T08:12:03;96239.72;;;10.85;50.08
55315;BME280;41619;42.816;23.226;2023-02-18T08:14:29;96231.03;;;10.55;49.94
55315;BME280;41619;42.816;23.226;2023-02-18T08:16:54;96235.19;;;10.13;50.40
55315;BME280;41619;42.816;23.226;2023-02-18T08:19:20;96246.66;;;9.82;51.08
55315;BME280;41619;42.816;23.226;2023-02-18T08:21:45;96249.38;;;9.57;51.82
55315;BME280;41619;42.816;23.226;2023-02-18T08:24:10;96234.31;;;9.39;51.86
55315;BME280;41619;42.816;23.226;2023-02-18T08:26:36;96245.53;;;9.25;51.65
55315;BME280;41619;42.816;23.226;2023-02-18T08:29:01;96239.38;;;9.16;51.38
55315;BME280;41619;42.816;23.226;2023-02-18T08:31:28;96240.25;;;9.08;51.32
55315;BME280;41619;42.816;23.226;2023-02-18T08:33:55;96246.72;;;9.03;51.63
55315;BME280;41619;42.816;23.226;2023-02-18T08:36:22;96246.28;;;9.01;50.89
55315;BME280;41619;42.816;23.226;2023-02-18T08:38:48;96247.66;;;9.07;51.00
55315;BME280;41619;42.816;23.226;2023-02-18T08:41:13;96240.00;;;9.46;50.17
55315;BME280;41619;42.816;23.226;2023-02-18T08:43:40;96234.50;;;9.79;49.43
55315;BME280;41619;42.816;23.226;2023-02-18T08:46:05;96236.44;;;9.91;48.57
55315;BME280;41619;42.816;23.226;2023-02-18T08:48:31;96235.75;;;9.94;48.34
55315;BME280;41619;42.816;23.226;2023-02-18T08:50:57;96232.22;;;9.93;48.12
55315;BME280;41619;42.816;23.226;2023-02-18T08:53:23;96231.63;;;10.00;47.46
55315;BME280;41619;42.816;23.226;2023-02-18T08:55:48;96227.09;;;10.04;47.40
55315;BME280;41619;42.816;23.226;2023-02-18T08:58:14;96229.84;;;10.28;46.72
55315;BME280;41619;42.816;23.226;2023-02-18T09:00:41;96230.28;;;10.43;46.42
55315;BME280;41619;42.816;23.226;2023-02-18T09:03:11;96221.22;;;10.54;46.34
55315;BME280;41619;42.816;23.226;2023-02-18T09:05:38;96223.72;;;11.00;45.51
55315;BME280;41619;42.816;23.226;2023-02-18T09:08:03;96219.19;;;11.35;45.23
55315;BME280;41619;42.816;23.226;2023-02-18T09:10:29;96211.44;;;12.00;44.47
55315;BME280;41619;42.816;23.226;2023-02-18T09:12:54;96208.34;;;12.91;43.13
55315;BME280;41619;42.816;23.226;2023-02-18T09:15:19;96209.69;;;13.59;41.71
55315;BME280;41619;42.816;23.226;2023-02-18T09:17:45;96209.59;;;14.01;41.44
55315;BME280;41619;42.816;23.226;2023-02-18T09:20:10;96212.47;;;14.35;40.76
55315;BME280;41619;42.816;23.226;2023-02-18T09:22:36;96213.59;;;14.57;39.59
55315;BME280;41619;42.816;23.226;2023-02-18T09:25:02;96206.13;;;14.57;39.34
55315;BME280;41619;42.816;23.226;2023-02-18T09:27:27;96208.34;;;14.48;39.38
55315;BME280;41619;42.816;23.226;2023-02-18T09:29:53;96208.19;;;14.37;39.31
55315;BME280;41619;42.816;23.226;2023-02-18T09:32:18;96203.97;;;14.43;38.85
55315;BME280;41619;42.816;23.226;2023-02-18T09:34:44;96201.41;;;14.58;38.65
55315;BME280;41619;42.816;23.226;2023-02-18T09:37:09;96210.66;;;14.72;37.87
55315;BME280;41619;42.816;23.226;2023-02-18T09:39:35;96204.53;;;14.86;37.52
55315;BME280;41619;42.816;23.226;2023-02-18T09:42:06;96201.31;;;14.80;37.12
55315;BME280;41619;42.816;23.226;2023-02-18T09:44:38;96193.28;;;14.68;37.09
55315;BME280;41619;42.816;23.226;2023-02-18T09:49:47;96199.22;;;14.17;37.34
55315;BME280;41619;42.816;23.226;2023-02-18T09:54:45;96197.28;;;14.18;37.33
55315;BME280;41619;42.816;23.226;2023-02-18T09:57:43;96203.63;;;14.48;36.91
55315;BME280;41619;42.816;23.226;2023-02-18T10:00:13;96180.47;;;14.83;36.75
55315;BME280;41619;42.816;23.226;2023-02-18T10:02:40;96185.25;;;15.20;36.44
55315;BME280;41619;42.816;23.226;2023-02-18T10:05:13;96187.03;;;15.79;36.49
55315;BME280;41619;42.816;23.226;2023-02-18T10:07:40;96175.00;;;16.63;37.47
55315;BME280;41619;42.816;23.226;2023-02-18T10:12:54;96166.13;;;20.26;35.81
55315;BME280;41619;42.816;23.226;2023-02-18T10:15:22;96170.81;;;21.73;33.38
55315;BME280;41619;42.816;23.226;2023-02-18T10:17:52;96171.66;;;23.10;31.50
55315;BME280;41619;42.816;23.226;2023-02-18T10:20:21;96158.59;;;23.23;29.03
55315;BME280;41619;42.816;23.226;2023-02-18T10:22:49;96162.28;;;22.11;28.27
55315;BME280;41619;42.816;23.226;2023-02-18T10:25:21;96153.06;;;21.63;27.39
55315;BME280;41619;42.816;23.226;2023-02-18T10:27:49;96141.34;;;20.84;26.96
55315;BME280;41619;42.816;23.226;2023-02-18T10:30:37;96137.28;;;19.61;27.18
55315;BME280;41619;42.816;23.226;2023-02-18T10:33:30;96128.13;;;18.91;28.08
55315;BME280;41619;42.816;23.226;2023-02-18T10:47:38;96136.16;;;17.18;29.04
55315;BME280;41619;42.816;23.226;2023-02-18T10:52:55;96124.00;;;16.47;29.73
55315;BME280;41619;42.816;23.226;2023-02-18T10:55:35;96127.03;;;16.20;29.68
55315;BME280;41619;42.816;23.226;2023-02-18T10:58:00;96124.59;;;16.91;29.68
55315;BME280;41619;42.816;23.226;2023-02-18T11:00:26;96115.19;;;18.53;28.86
55315;BME280;41619;42.816;23.226;2023-02-18T11:03:25;96108.59;;;19.20;27.37
55315;BME280;41619;42.816;23.226;2023-02-18T11:05:54;96094.25;;;18.41;27.86
55315;BME280;41619;42.816;23.226;2023-02-18T11:08:24;96089.19;;;17.97;28.06
55315;BME280;41619;42.816;23.226;2023-02-18T11:10:51;96082.47;;;17.51;28.22
55315;BME280;41619;42.816;23.226;2023-02-18T11:13:26;96084.41;;;17.37;27.96
55315;BME280;41619;42.816;23.226;2023-02-18T11:15:59;96081.66;;;17.44;28.40
55315;BME280;41619;42.816;23.226;2023-02-18T11:20:59;96065.34;;;18.35;27.17
55315;BME280;41619;42.816;23.226;2023-02-18T11:23:25;96066.31;;;18.98;26.45
55315;BME280;41619;42.816;23.226;2023-02-18T11:26:00;96065.56;;;19.53;25.71
55315;BME280;41619;42.816;23.226;2023-02-18T11:28:40;96057.22;;;19.56;25.44
55315;BME280;41619;42.816;23.226;2023-02-18T11:31:07;96052.75;;;19.11;25.78
55315;BME280;41619;42.816;23.226;2023-02-18T11:33:40;96052.19;;;18.57;25.99
55315;BME280;41619;42.816;23.226;2023-02-18T11:38:48;96050.81;;;17.99;27.26
55315;BME280;41619;42.816;23.226;2023-02-18T11:41:17;96049.25;;;17.91;27.26
55315;BME280;41619;42.816;23.226;2023-02-18T11:43:49;96031.06;;;17.79;27.25
55315;BME280;41619;42.816;23.226;2023-02-18T11:46:21;96035.00;;;17.42;27.37
55315;BME280;41619;42.816;23.226;2023-02-18T11:48:48;96030.28;;;17.32;27.71
55315;BME280;41619;42.816;23.226;2023-02-18T11:51:32;96026.72;;;17.35;27.99
55315;BME280;41619;42.816;23.226;2023-02-18T11:54:30;96013.28;;;17.48;27.91
55315;BME280;41619;42.816;23.226;2023-02-18T11:56:59;96003.38;;;17.61;27.64
55315;BME280;41619;42.816;23.226;2023-02-18T11:59:26;96013.25;;;17.66;27.58
55315;BME280;41619;42.816;23.226;2023-02-18T12:01:59;96014.84;;;17.67;27.68
55315;BME280;41619;42.816;23.226;2023-02-18T12:04:30;96006.91;;;17.65;27.67
55315;BME280;41619;42.816;23.226;2023-02-18T12:07:27;96004.53;;;17.64;27.38
55315;BME280;41619;42.816;23.226;2023-02-18T12:10:03;95997.44;;;17.55;27.49
55315;BME280;41619;42.816;23.226;2023-02-18T12:12:39;96001.81;;;17.32;27.73
55315;BME280;41619;42.816;23.226;2023-02-18T12:15:13;95986.03;;;17.11;27.63
55315;BME280;41619;42.816;23.226;2023-02-18T12:18:07;95980.06;;;16.94;28.04
55315;BME280;41619;42.816;23.226;2023-02-18T12:20:51;95980.44;;;16.82;28.09
55315;BME280;41619;42.816;23.226;2023-02-18T12:24:02;95979.59;;;16.64;28.26
55315;BME280;41619;42.816;23.226;2023-02-18T12:32:14;95964.63;;;16.72;28.23
55315;BME280;41619;42.816;23.226;2023-02-18T12:52:14;95937.78;;;17.40;27.66
55315;BME280;41619;42.816;23.226;2023-02-18T12:54:43;95935.78;;;17.44;27.37
55315;BME280;41619;42.816;23.226;2023-02-18T12:57:31;95945.66;;;17.52;27.12
55315;BME280;41619;42.816;23.226;2023-02-18T13:07:52;95941.75;;;17.36;27.30
55315;BME280;41619;42.816;23.226;2023-02-18T13:13:24;95947.66;;;17.09;27.42
55315;BME280;41619;42.816;23.226;2023-02-18T13:16:00;95944.94;;;16.95;27.59
55315;BME280;41619;42.816;23.226;2023-02-18T13:18:37;95948.06;;;16.79;27.71
55315;BME280;41619;42.816;23.226;2023-02-18T13:21:06;95950.41;;;16.70;27.87
55315;BME280;41619;42.816;23.226;2023-02-18T13:23:35;95951.16;;;16.63;27.85
55315;BME280;41619;42.816;23.226;2023-02-18T13:26:04;95947.19;;;16.54;28.15
55315;BME280;41619;42.816;23.226;2023-02-18T13:28:39;95945.59;;;16.42;28.54
55315;BME280;41619;42.816;23.226;2023-02-18T13:36:39;95950.16;;;15.99;29.07
55315;BME280;41619;42.816;23.226;2023-02-18T13:39:13;95951.72;;;15.89;29.04
55315;BME280;41619;42.816;23.226;2023-02-18T13:41:49;95941.00;;;15.77;29.22
55315;BME280;41619;42.816;23.226;2023-02-18T13:46:51;95943.25;;;15.57;29.38
55315;BME280;41619;42.816;23.226;2023-02-18T13:49:20;95937.69;;;15.50;29.61
55315;BME280;41619;42.816;23.226;2023-02-18T13:51:49;95940.38;;;15.43;29.60
55315;BME280;41619;42.816;23.226;2023-02-18T13:54:27;95938.38;;;15.36;29.52
55315;BME280;41619;42.816;23.226;2023-02-18T13:57:13;95932.06;;;15.32;29.77
55315;BME280;41619;42.816;23.226;2023-02-18T13:59:55;95930.06;;;15.26;30.03
55315;BME280;41619;42.816;23.226;2023-02-18T14:04:49;95937.44;;;15.14;30.07
55315;BME280;41619;42.816;23.226;2023-02-18T14:07:16;95933.09;;;15.10;30.13
55315;BME280;41619;42.816;23.226;2023-02-18T14:09:47;95928.28;;;15.00;30.12
55315;BME280;41619;42.816;23.226;2023-02-18T14:20:43;95930.41;;;14.69;30.70
55315;BME280;41619;42.816;23.226;2023-02-18T14:33:38;95929.78;;;15.45;30.36
55315;BME280;41619;42.816;23.226;2023-02-18T14:36:17;95927.75;;;15.35;30.17
55315;BME280;41619;42.816;23.226;2023-02-18T14:41:38;95927.13;;;15.04;30.88
55315;BME280;41619;42.816;23.226;2023-02-18T14:44:11;95920.34;;;14.91;31.15
55315;BME280;41619;42.816;23.226;2023-02-18T14:47:59;95915.94;;;14.83;30.91
55315;BME280;41619;42.816;23.226;2023-02-18T14:49:53;95913.91;;;14.73;31.01
55315;BME280;41619;42.816;23.226;2023-02-18T14:52:42;95918.09;;;14.60;31.39
55315;BME280;41619;42.816;23.226;2023-02-18T14:55:36;95914.03;;;14.46;31.67
55315;BME280;41619;42.816;23.226;2023-02-18T15:00:53;95918.03;;;14.15;31.73
55315;BME280;41619;42.816;23.226;2023-02-18T15:03:19;95912.78;;;14.03;32.21
55315;BME280;41619;42.816;23.226;2023-02-18T15:05:48;95912.22;;;13.90;32.25
55315;BME280;41619;42.816;23.226;2023-02-18T15:08:21;95914.09;;;13.79;32.30
55315;BME280;41619;42.816;23.226;2023-02-18T15:13:18;95907.88;;;13.56;33.07
55315;BME280;41619;42.816;23.226;2023-02-18T15:15:47;95909.34;;;13.46;33.04
55315;BME280;41619;42.816;23.226;2023-02-18T15:18:36;95904.09;;;13.38;33.61
55315;BME280;41619;42.816;23.226;2023-02-18T15:21:04;95900.06;;;13.28;33.30
55315;BME280;41619;42.816;23.226;2023-02-18T15:23:34;95889.69;;;13.18;33.65
55315;BME280;41619;42.816;23.226;2023-02-18T15:26:01;95896.22;;;13.10;33.87